Time;durP1;ratioP1;P1;durP2;ratioP2;P2;SDS_P1;SDS_P2;PMS_P1;PMS_P2;Temp;Humidity;BMP_temperature;BMP_pressure;BME280_temperature;BME280_humidity;BME280_pressure;Samples;Min_cycle;Max_cycle;Signal;HPM_P1;HPM_P2
2022/03/24 00:00:05;;;;;;;19.03;12.93;;;5.60;99.90;196.50;224877.00;;;;7391603;19;20125;-80
2022/03/24 00:02:32;;;;;;;22.60;14.50;;;5.40;99.90;196.50;224877.00;;;;7391157;19;20596;-81
2022/03/24 00:04:59;;;;;;;20.90;13.37;;;5.40;99.90;196.50;224877.00;;;;7391918;19;20131;-80
2022/03/24 00:07:36;;;;;;;21.40;14.33;;;5.40;99.90;196.50;224877.00;;;;7390790;19;20600;-80
2022/03/24 00:10:05;;;;;;;24.73;13.73;;;5.40;99.90;196.50;224877.00;;;;7391449;19;20133;-80
2022/03/24 00:12:34;;;;;;;19.40;13.97;;;5.40;99.90;196.50;224877.00;;;;7390363;19;20140;-78
2022/03/24 00:15:08;;;;;;;20.27;13.80;;;5.40;99.90;196.50;224877.00;;;;7390598;19;20140;-80
2022/03/24 00:17:36;;;;;;;21.27;13.73;;;5.30;99.90;196.50;224877.00;;;;7389902;19;20141;-80
2022/03/24 00:20:05;;;;;;;21.20;13.43;;;5.30;99.90;196.50;224877.00;;;;7389316;19;20224;-81
2022/03/24 00:22:39;;;;;;;21.70;13.63;;;5.30;99.90;196.50;224877.00;;;;7391112;19;20140;-80
2022/03/24 00:25:08;;;;;;;18.37;12.93;;;5.30;99.90;196.50;224877.00;;;;7389580;19;20644;-80
2022/03/24 00:27:35;;;;;;;18.97;12.37;;;5.30;99.90;196.50;224877.00;;;;7391240;19;20145;-79
2022/03/24 00:30:10;;;;;;;27.27;13.17;;;5.40;99.90;196.50;224877.00;;;;7395816;19;20137;-79
2022/03/24 00:32:37;;;;;;;19.20;12.83;;;5.30;99.90;196.50;224877.00;;;;7402843;19;20149;-79
2022/03/24 00:35:05;;;;;;;17.37;11.93;;;5.30;99.90;196.50;224877.00;;;;7395953;19;20536;-79
2022/03/24 00:37:39;;;;;;;15.27;11.60;;;5.30;99.90;196.50;224877.00;;;;7396619;19;20143;-79
2022/03/24 00:40:07;;;;;;;16.93;11.43;;;5.40;99.90;196.50;224877.00;;;;7396585;19;20585;-79
2022/03/24 00:42:37;;;;;;;18.67;11.50;;;5.40;99.90;196.50;224877.00;;;;7397970;19;20137;-80
2022/03/24 00:45:12;;;;;;;20.57;12.10;;;5.40;99.90;196.50;224877.00;;;;7396535;19;20141;-80
2022/03/24 00:47:41;;;;;;;15.87;10.53;;;5.40;99.90;196.50;224877.00;;;;7396458;19;20596;-79
2022/03/24 00:50:11;;;;;;;15.37;10.87;;;5.40;99.90;196.50;224877.00;;;;7397032;19;20124;-78
2022/03/24 00:52:45;;;;;;;13.03;10.17;;;5.40;99.90;196.50;224877.00;;;;7397365;19;20145;-79
2022/03/24 00:55:18;;;;;;;17.40;10.23;;;5.40;99.90;196.50;224877.00;;;;7396611;19;20137;-80
2022/03/24 00:57:53;;;;;;;12.30;9.53;;;5.40;99.90;196.50;224877.00;;;;7396272;19;20142;-80
2022/03/24 01:00:25;;;;;;;16.03;10.20;;;5.40;99.90;196.50;224877.00;;;;7394464;19;20153;-79
2022/03/24 01:02:54;;;;;;;13.23;10.17;;;5.40;99.90;196.50;224877.00;;;;7397808;19;20125;-78
2022/03/24 01:05:29;;;;;;;13.10;9.27;;;5.40;99.90;196.50;224877.00;;;;7397368;19;20124;-80
2022/03/24 01:07:56;;;;;;;12.27;9.30;;;5.40;99.90;196.50;224877.00;;;;7395987;19;20569;-79
2022/03/24 01:10:24;;;;;;;14.47;8.73;;;5.40;99.90;196.50;224877.00;;;;7396341;19;20137;-80
2022/03/24 01:13:01;;;;;;;14.47;9.73;;;5.40;99.90;196.50;224877.00;;;;7395589;19;20142;-79
2022/03/24 01:15:30;;;;;;;12.30;9.03;;;5.40;99.90;196.50;224877.00;;;;7396342;19;20196;-79
2022/03/24 01:18:00;;;;;;;11.97;8.77;;;5.40;99.90;196.50;224877.00;;;;7395791;19;20145;-79
2022/03/24 01:20:34;;;;;;;11.17;9.10;;;5.50;99.90;196.50;224877.00;;;;7394717;19;20140;-79
2022/03/24 01:23:01;;;;;;;11.90;8.97;;;5.50;99.90;196.50;224877.00;;;;7395755;19;20615;-80
2022/03/24 01:25:29;;;;;;;13.03;9.60;;;5.50;99.90;196.50;224877.00;;;;7394778;19;20628;-80
2022/03/24 01:28:03;;;;;;;12.77;9.20;;;5.50;99.90;196.50;224877.00;;;;7396717;19;20136;-80
2022/03/24 01:30:30;;;;;;;11.97;9.40;;;5.40;99.90;196.50;224877.00;;;;7396580;19;20128;-80
2022/03/24 01:32:57;;;;;;;14.07;9.50;;;5.40;99.90;196.50;224877.00;;;;7395446;19;20141;-78
2022/03/24 01:35:38;;;;;;;12.10;9.13;;;5.30;99.90;196.50;224877.00;;;;7395443;19;20129;-79
2022/03/24 01:38:09;;;;;;;13.67;8.77;;;5.30;99.90;196.50;224877.00;;;;7395171;19;20129;-79
2022/03/24 01:40:44;;;;;;;17.67;8.87;;;5.30;99.90;196.50;224877.00;;;;7389423;19;20155;-79
2022/03/24 01:43:11;;;;;;;13.47;8.83;;;5.20;99.90;196.50;224877.00;;;;7394638;19;20509;-78
2022/03/24 01:45:39;;;;;;;12.63;8.97;;;5.20;99.90;196.50;224877.00;;;;7399442;19;20141;-79
2022/03/24 01:48:14;;;;;;;13.43;8.63;;;5.10;99.90;196.50;224877.00;;;;7395148;19;20536;-79
2022/03/24 01:50:42;;;;;;;12.47;8.93;;;5.10;99.90;196.50;224877.00;;;;7395191;19;20208;-78
2022/03/24 01:53:12;;;;;;;12.93;9.03;;;5.00;99.90;196.50;224877.00;;;;7393007;19;20129;-78
2022/03/24 01:55:48;;;;;;;12.77;8.97;;;5.00;99.90;196.50;224877.00;;;;7395989;19;20128;-77
2022/03/24 01:58:15;;;;;;;15.20;9.37;;;5.10;99.90;196.50;224877.00;;;;7393958;19;20133;-78
2022/03/24 02:00:44;;;;;;;10.63;8.27;;;5.10;99.90;196.50;224877.00;;;;7393062;19;20731;-75
2022/03/24 02:03:21;;;;;;;14.30;8.90;;;5.10;99.90;196.50;224877.00;;;;7393994;19;20481;-75
2022/03/24 02:05:49;;;;;;;14.97;8.37;;;5.10;99.90;196.50;224877.00;;;;7394880;19;20158;-75
2022/03/24 02:08:26;;;;;;;11.57;8.77;;;5.00;99.90;196.50;224877.00;;;;7393740;19;20468;-76
2022/03/24 02:11:19;;;;;;;11.10;8.33;;;5.00;99.90;196.50;224877.00;;;;7395270;19;20150;-76
2022/03/24 02:13:46;;;;;;;14.60;8.67;;;5.00;99.90;196.50;224877.00;;;;7397455;19;20204;-76
2022/03/24 02:16:21;;;;;;;12.13;9.43;;;5.00;99.90;196.50;224877.00;;;;7393835;19;20144;-76
2022/03/24 02:18:49;;;;;;;11.40;8.63;;;4.90;99.90;196.50;224877.00;;;;7394732;19;20499;-76
2022/03/24 02:21:16;;;;;;;12.70;8.80;;;4.90;99.90;196.50;224877.00;;;;7392523;19;20132;-76
2022/03/24 02:23:50;;;;;;;13.43;8.93;;;4.90;99.90;196.50;224877.00;;;;7392760;19;20485;-75
2022/03/24 02:26:20;;;;;;;12.13;8.77;;;4.90;99.90;196.50;224877.00;;;;7391660;19;20144;-76
2022/03/24 02:28:47;;;;;;;12.70;8.97;;;4.90;99.90;196.50;224877.00;;;;7394437;19;20133;-75
2022/03/24 02:31:21;;;;;;;12.70;9.00;;;4.90;99.90;196.50;224877.00;;;;7393656;19;20141;-75
2022/03/24 02:36:55;;;;;;;12.17;9.47;;;4.80;99.90;196.50;224877.00;;;;7393787;19;20124;-76
2022/03/24 02:39:23;;;;;;;14.40;9.37;;;4.80;99.90;196.50;224877.00;;;;7392382;19;20144;-76
2022/03/24 02:41:54;;;;;;;15.53;9.73;;;4.80;99.90;196.50;224877.00;;;;7393490;19;20145;-75
2022/03/24 02:44:31;;;;;;;10.70;8.93;;;4.80;99.90;196.50;224877.00;;;;7393825;19;20725;-75
2022/03/24 02:47:03;;;;;;;16.07;9.07;;;4.80;99.90;196.50;224877.00;;;;7393542;19;20143;-76
2022/03/24 02:49:39;;;;;;;11.77;9.13;;;4.80;99.90;196.50;224877.00;;;;7393583;19;20129;-75
2022/03/24 02:52:08;;;;;;;14.73;9.40;;;4.70;99.90;196.50;224877.00;;;;7388798;19;20212;-76
2022/03/24 02:54:36;;;;;;;18.10;10.30;;;4.70;99.90;196.50;224877.00;;;;7392732;19;20121;-75
2022/03/24 02:57:12;;;;;;;12.17;9.30;;;4.80;99.90;196.50;224877.00;;;;7392824;19;20556;-76
2022/03/24 02:59:40;;;;;;;16.17;10.13;;;4.90;99.90;196.50;224877.00;;;;7391516;19;20140;-75
2022/03/24 03:02:14;;;;;;;13.43;10.03;;;5.00;99.90;196.50;224877.00;;;;7389659;19;20140;-76
2022/03/24 03:04:53;;;;;;;12.20;8.83;;;5.00;99.90;196.50;224877.00;;;;7392299;19;20615;-76
2022/03/24 03:07:21;;;;;;;14.13;10.17;;;4.90;99.90;196.50;224877.00;;;;7392762;19;20133;-75
2022/03/24 03:09:55;;;;;;;13.73;8.93;;;4.90;99.90;196.50;224877.00;;;;7393117;19;20138;-75
2022/03/24 03:12:22;;;;;;;17.43;9.03;;;4.80;99.90;196.50;224877.00;;;;7391216;19;20148;-76
2022/03/24 03:14:49;;;;;;;12.03;8.47;;;4.80;99.90;196.50;224877.00;;;;7391700;19;20135;-76
2022/03/24 03:17:23;;;;;;;13.50;8.80;;;4.80;99.90;196.50;224877.00;;;;7393194;19;20242;-76
2022/03/24 03:19:51;;;;;;;13.33;9.20;;;4.70;99.90;196.50;224877.00;;;;7391230;19;20135;-75
2022/03/24 03:22:18;;;;;;;11.87;9.37;;;4.80;99.90;196.50;224877.00;;;;7391104;19;20125;-75
2022/03/24 03:24:52;;;;;;;13.33;10.13;;;4.70;99.90;196.50;224877.00;;;;7391095;19;20213;-76
2022/03/24 03:27:19;;;;;;;11.47;9.13;;;4.70;99.90;196.50;224877.00;;;;7392080;19;20132;-75
2022/03/24 03:29:48;;;;;;;11.63;9.40;;;4.60;99.90;196.50;224877.00;;;;7391025;19;20130;-75
2022/03/24 03:32:24;;;;;;;12.50;9.70;;;4.60;99.90;196.50;224877.00;;;;7392682;19;20145;-75
2022/03/24 03:35:04;;;;;;;14.90;9.73;;;4.60;99.90;196.50;224877.00;;;;7391681;19;20160;-77
2022/03/24 03:37:38;;;;;;;10.77;9.27;;;4.50;99.90;196.50;224877.00;;;;7392110;19;20133;-75
2022/03/24 03:40:06;;;;;;;16.30;10.00;;;4.50;99.90;196.50;224877.00;;;;7391042;19;20133;-75
2022/03/24 03:42:34;;;;;;;13.17;8.60;;;4.60;99.90;196.50;224877.00;;;;7390604;19;20141;-75
2022/03/24 03:45:08;;;;;;;14.63;9.60;;;4.50;99.90;196.50;224877.00;;;;7390637;19;20144;-75
2022/03/24 03:47:35;;;;;;;12.67;9.23;;;4.50;99.90;196.50;224877.00;;;;7391621;19;20155;-75
2022/03/24 03:50:03;;;;;;;11.53;8.83;;;4.50;99.90;196.50;224877.00;;;;7391245;19;20129;-75
2022/03/24 03:52:37;;;;;;;12.57;9.47;;;4.50;99.90;196.50;224877.00;;;;7390965;19;20161;-76
2022/03/24 03:55:06;;;;;;;13.37;9.53;;;4.50;99.90;196.50;224877.00;;;;7389963;19;20145;-75
2022/03/24 03:57:33;;;;;;;14.47;9.60;;;4.60;99.90;196.50;224877.00;;;;7391449;19;20178;-75
2022/03/24 04:02:54;;;;;;;13.73;9.50;;;4.50;99.90;196.50;224877.00;;;;7390204;19;20653;-76
2022/03/24 04:05:28;;;;;;;12.77;9.43;;;4.50;99.90;196.50;224877.00;;;;7396634;19;20136;-75
2022/03/24 04:07:56;;;;;;;12.00;9.47;;;4.50;99.90;196.50;224877.00;;;;7397512;19;20149;-75
2022/03/24 04:10:26;;;;;;;13.93;10.00;;;4.50;99.90;196.50;224877.00;;;;7398413;19;20477;-75
2022/03/24 04:12:59;;;;;;;11.47;8.97;;;4.40;99.90;196.50;224877.00;;;;7398259;19;20543;-76
2022/03/24 04:15:33;;;;;;;12.80;9.43;;;4.40;99.90;196.50;224877.00;;;;7398741;19;20498;-75
2022/03/24 04:18:07;;;;;;;13.97;10.00;;;4.30;99.90;196.50;224877.00;;;;7397955;19;20140;-76
2022/03/24 04:20:34;;;;;;;14.33;9.33;;;4.30;99.90;196.50;224877.00;;;;7397489;19;20168;-77
2022/03/24 04:23:04;;;;;;;13.73;9.30;;;4.30;99.90;196.50;224877.00;;;;7398087;19;20603;-76
2022/03/24 04:25:38;;;;;;;12.30;9.27;;;4.30;99.90;196.50;224877.00;;;;7395955;19;20139;-76
2022/03/24 04:28:09;;;;;;;13.80;9.23;;;4.30;99.90;196.50;224877.00;;;;7396649;19;20141;-75
2022/03/24 04:30:51;;;;;;;13.93;9.53;;;4.30;99.90;196.50;224877.00;;;;7396424;19;20147;-77
2022/03/24 04:33:32;;;;;;;14.07;9.60;;;4.20;99.90;196.50;224877.00;;;;7398497;19;20125;-77
2022/03/24 04:36:09;;;;;;;13.30;9.10;;;4.20;99.90;196.50;224877.00;;;;7399102;19;20124;-77
2022/03/24 04:38:42;;;;;;;14.00;9.43;;;4.20;99.90;196.50;224877.00;;;;7397460;19;20166;-75
2022/03/24 04:41:09;;;;;;;12.67;10.03;;;4.30;99.90;196.50;224877.00;;;;7395525;19;20141;-76
2022/03/24 04:43:37;;;;;;;15.47;9.50;;;4.30;99.90;196.50;224877.00;;;;7397515;19;20163;-76
2022/03/24 04:46:12;;;;;;;12.97;9.50;;;4.30;99.90;196.50;224877.00;;;;7397037;19;20584;-76
2022/03/24 04:48:39;;;;;;;13.00;9.47;;;4.30;99.90;196.50;224877.00;;;;7397470;19;20141;-74
2022/03/24 04:51:07;;;;;;;17.10;9.67;;;4.30;99.90;196.50;224877.00;;;;7398065;19;20137;-76
2022/03/24 04:53:41;;;;;;;21.00;10.97;;;4.30;99.90;196.50;224877.00;;;;7396547;19;20611;-76
2022/03/24 04:56:10;;;;;;;12.33;9.00;;;4.30;99.90;196.50;224877.00;;;;7397214;19;20166;-76
2022/03/24 04:58:37;;;;;;;12.27;9.13;;;4.30;99.90;196.50;224877.00;;;;7397577;19;20601;-76
2022/03/24 05:01:14;;;;;;;13.07;9.70;;;4.40;99.90;196.50;224877.00;;;;7396074;19;20615;-76
2022/03/24 05:03:46;;;;;;;11.87;8.97;;;4.40;99.90;196.50;224877.00;;;;7399586;19;20145;-77
2022/03/24 05:06:21;;;;;;;13.07;9.10;;;4.40;99.90;196.50;224877.00;;;;7397957;19;20144;-76
2022/03/24 05:08:50;;;;;;;14.83;9.53;;;4.40;99.90;196.50;224877.00;;;;7398798;19;20133;-75
2022/03/24 05:11:18;;;;;;;15.53;9.97;;;4.40;99.90;196.50;224877.00;;;;7398318;19;20137;-76
2022/03/24 05:13:51;;;;;;;20.30;10.97;;;4.40;99.90;196.50;224877.00;;;;7403986;19;20165;-76
2022/03/24 05:16:19;;;;;;;15.60;9.80;;;4.40;99.90;196.50;224877.00;;;;7397839;19;20143;-76
2022/03/24 05:18:46;;;;;;;15.70;9.50;;;4.40;99.90;196.50;224877.00;;;;7397940;19;20538;-75
2022/03/24 05:21:20;;;;;;;19.53;9.30;;;4.40;99.90;196.50;224877.00;;;;7397696;19;20141;-76
2022/03/24 05:23:48;;;;;;;14.40;10.07;;;4.40;99.90;196.50;224877.00;;;;7398669;19;20136;-76
2022/03/24 05:26:20;;;;;;;17.50;9.70;;;4.50;99.90;196.50;224877.00;;;;7389182;19;20173;-77
2022/03/24 05:28:57;;;;;;;17.27;10.43;;;4.50;99.90;196.50;224877.00;;;;7394919;19;20120;-77
2022/03/24 05:31:25;;;;;;;12.27;9.00;;;4.50;99.90;196.50;224877.00;;;;7396124;19;20132;-77
2022/03/24 05:33:52;;;;;;;14.90;9.93;;;4.60;99.90;196.50;224877.00;;;;7394221;19;20601;-77
2022/03/24 05:36:32;;;;;;;15.07;9.07;;;4.60;99.90;196.50;224877.00;;;;7396527;19;20135;-77
2022/03/24 05:38:59;;;;;;;14.63;9.87;;;4.70;99.90;196.50;224877.00;;;;7394444;19;20596;-77
2022/03/24 05:41:33;;;;;;;13.20;8.83;;;4.70;99.90;196.50;224877.00;;;;7394226;19;20647;-76
2022/03/24 05:44:02;;;;;;;14.97;10.17;;;4.80;99.90;196.50;224877.00;;;;7394933;19;20597;-76
2022/03/24 05:46:46;;;;;;;15.87;9.40;;;4.80;99.90;196.50;224877.00;;;;7394066;19;20133;-76
2022/03/24 05:49:21;;;;;;;13.67;9.70;;;4.90;99.90;196.50;224877.00;;;;7394844;19;20157;-76
2022/03/24 05:51:50;;;;;;;12.40;9.13;;;5.00;99.90;196.50;224877.00;;;;7398361;19;20583;-76
2022/03/24 05:54:23;;;;;;;15.30;9.70;;;5.10;99.90;196.50;224877.00;;;;7394608;19;20245;-76
2022/03/24 05:56:57;;;;;;;18.20;9.77;;;5.20;99.90;196.50;224877.00;;;;7393916;19;20136;-76
2022/03/24 05:59:25;;;;;;;14.83;9.30;;;5.30;99.90;196.50;224877.00;;;;7393998;19;20603;-77
2022/03/24 06:01:53;;;;;;;13.13;9.33;;;5.40;99.90;196.50;224877.00;;;;7392608;19;20224;-76
2022/03/24 06:04:30;;;;;;;13.43;9.33;;;5.50;99.90;196.50;224877.00;;;;7392546;19;20208;-76
2022/03/24 06:07:07;;;;;;;15.17;9.37;;;5.60;99.90;196.50;224877.00;;;;7397801;19;20560;-76
2022/03/24 06:09:50;;;;;;;12.23;9.37;;;5.80;99.90;196.50;224877.00;;;;7394234;19;20141;-76
2022/03/24 06:12:21;;;;;;;11.80;9.20;;;5.90;99.90;196.50;224877.00;;;;7394748;19;20162;-76
2022/03/24 06:15:01;;;;;;;14.73;9.20;;;6.10;99.90;196.50;224877.00;;;;7393973;19;20133;-76
2022/03/24 06:17:29;;;;;;;12.80;9.47;;;6.20;99.90;196.50;224877.00;;;;7393704;19;20158;-76
2022/03/24 06:20:04;;;;;;;10.20;8.57;;;6.40;99.90;196.50;224877.00;;;;7393466;19;20132;-76
2022/03/24 06:22:49;;;;;;;10.70;8.67;;;6.60;99.90;196.50;224877.00;;;;7394572;19;20149;-75
2022/03/24 06:25:23;;;;;;;12.33;9.37;;;6.70;99.90;196.50;224877.00;;;;7392770;19;20232;-76
2022/03/24 06:27:50;;;;;;;12.07;8.73;;;6.90;99.90;196.50;224877.00;;;;7390654;19;20150;-76
2022/03/24 06:30:19;;;;;;;23.40;10.27;;;7.10;99.90;196.50;224877.00;;;;7393063;19;20147;-76
2022/03/24 06:32:52;;;;;;;12.07;8.70;;;7.30;99.90;196.50;224877.00;;;;7392940;19;20148;-76
2022/03/24 06:35:27;;;;;;;11.83;8.63;;;7.50;99.90;196.50;224877.00;;;;7392543;19;20145;-76
2022/03/24 06:38:01;;;;;;;13.20;8.67;;;7.70;99.90;196.50;224877.00;;;;7394284;19;20615;-76
2022/03/24 06:40:29;;;;;;;11.93;8.67;;;7.90;99.90;196.50;224877.00;;;;7392476;19;20175;-75
2022/03/24 06:42:56;;;;;;;11.17;9.30;;;8.10;99.90;196.50;224877.00;;;;7390633;19;20177;-75
2022/03/24 06:45:32;;;;;;;12.43;9.10;;;8.20;99.90;196.50;224877.00;;;;7393383;19;20136;-76
2022/03/24 06:48:00;;;;;;;12.47;9.33;;;8.50;99.90;196.50;224877.00;;;;7396988;19;20494;-76
2022/03/24 06:50:27;;;;;;;10.93;9.25;;;8.70;99.90;196.50;224877.00;;;;7394943;19;20592;-76
2022/03/24 06:53:03;;;;;;;12.02;9.57;;;9.00;99.90;196.50;224877.00;;;;7393431;19;20148;-75
2022/03/24 06:55:31;;;;;;;10.80;9.07;;;9.40;99.90;196.50;224877.00;;;;7392135;19;20144;-77
2022/03/24 06:57:58;;;;;;;13.60;10.75;;;9.70;99.90;196.50;224877.00;;;;7392446;19;20188;-75
2022/03/24 07:00:35;;;;;;;15.43;10.00;;;10.10;99.90;196.50;224877.00;;;;7389784;19;20600;-76
2022/03/24 07:03:02;;;;;;;11.82;9.75;;;10.60;99.90;196.50;224877.00;;;;7391363;19;20216;-74
2022/03/24 07:05:31;;;;;;;12.48;9.85;;;11.20;99.90;196.50;224877.00;;;;7393285;19;20132;-76
2022/03/24 07:08:08;;;;;;;14.85;10.20;;;11.60;99.90;196.50;224877.00;;;;7391546;19;20584;-75
2022/03/24 07:10:36;;;;;;;13.73;9.77;;;12.10;99.90;196.50;224877.00;;;;7390769;19;20132;-75
2022/03/24 07:13:04;;;;;;;11.05;9.68;;;12.60;99.90;196.50;224877.00;;;;7389769;19;20120;-74
2022/03/24 07:15:38;;;;;;;18.02;11.02;;;12.90;99.90;196.50;224877.00;;;;7390440;19;20144;-75
2022/03/24 07:18:05;;;;;;;15.75;10.88;;;13.20;99.90;196.50;224877.00;;;;7391853;19;20137;-73
2022/03/24 07:20:34;;;;;;;13.75;10.35;;;13.50;99.90;196.50;224877.00;;;;7391648;19;20150;-75
2022/03/24 07:23:09;;;;;;;16.85;11.07;;;13.70;91.60;196.50;224877.00;;;;7388904;19;20216;-75
2022/03/24 07:25:36;;;;;;;14.38;10.80;;;13.80;77.50;196.50;224877.00;;;;7391256;19;20169;-76
2022/03/24 07:28:07;;;;;;;17.90;10.88;;;14.00;72.10;196.50;224877.00;;;;7390439;19;20566;-76
2022/03/24 07:30:43;;;;;;;13.32;10.60;;;;;196.50;224877.00;;;;7389762;19;20129;-76
2022/03/24 07:33:11;;;;;;;15.70;12.18;;;14.40;38.20;196.50;224877.00;;;;7391173;19;20128;-74
2022/03/24 07:35:38;;;;;;;14.10;12.30;;;14.40;65.10;196.50;224877.00;;;;7388225;19;20155;-74
2022/03/24 07:38:13;;;;;;;18.13;12.50;;;14.40;62.00;196.50;224877.00;;;;7391736;19;20129;-73
2022/03/24 07:40:48;;;;;;;16.10;13.68;;;14.70;59.30;196.50;224877.00;;;;7390487;19;20604;-74
2022/03/24 07:43:22;;;;;;;16.45;13.32;;;14.70;57.50;196.50;224877.00;;;;7385093;19;20136;-75
2022/03/24 07:45:51;;;;;;;15.05;13.20;;;14.90;60.40;196.50;224877.00;;;;7389465;19;20609;-75
2022/03/24 07:48:25;;;;;;;17.45;13.38;;;15.20;59.70;196.50;224877.00;;;;7390645;19;20144;-75
2022/03/24 07:51:03;;;;;;;13.57;12.15;;;15.50;50.10;196.50;224877.00;;;;7392230;19;20121;-76
2022/03/24 07:53:51;;;;;;;17.55;12.95;;;15.60;37.20;196.50;224877.00;;;;7389355;19;20137;-75
2022/03/24 07:56:26;;;;;;;14.10;11.75;;;15.50;42.40;196.50;224877.00;;;;7390619;19;20137;-76
2022/03/24 07:58:54;;;;;;;13.88;12.15;;;15.70;35.70;196.50;224877.00;;;;7389383;19;20133;-76
2022/03/24 08:01:30;;;;;;;14.35;12.48;;;15.80;59.60;196.50;224877.00;;;;7389138;19;20125;-73
2022/03/24 08:04:06;;;;;;;14.80;12.05;;;15.80;34.30;196.50;224877.00;;;;7391655;19;20117;-75
2022/03/24 08:06:39;;;;;;;15.00;12.25;;;16.00;35.10;196.50;224877.00;;;;7390060;19;20151;-75
2022/03/24 08:09:12;;;;;;;14.65;12.07;;;16.40;33.20;196.50;224877.00;;;;7389916;19;20153;-74
2022/03/24 08:11:39;;;;;;;13.63;11.20;;;16.60;58.70;196.50;224877.00;;;;7390019;19;20141;-74
2022/03/24 08:14:06;;;;;;;14.13;11.68;;;16.60;24.30;196.50;224877.00;;;;7389556;19;20145;-76
2022/03/24 08:16:40;;;;;;;16.10;12.10;;;16.60;16.30;196.50;224877.00;;;;7390765;19;20129;-75
2022/03/24 08:19:08;;;;;;;13.65;10.77;;;16.60;20.60;196.50;224877.00;;;;7389205;19;20121;-75
2022/03/24 08:21:36;;;;;;;13.48;11.63;;;16.90;19.50;196.50;224877.00;;;;7388486;19;20640;-74
2022/03/24 08:24:10;;;;;;;10.95;9.85;;;17.20;12.40;196.50;224877.00;;;;7388706;19;20501;-76
2022/03/24 08:26:37;;;;;;;11.88;10.20;;;17.50;12.60;196.50;224877.00;;;;7388285;19;20235;-75
2022/03/24 08:29:05;;;;;;;14.32;11.43;;;17.90;3.10;196.50;224877.00;;;;7388492;19;20133;-76
2022/03/24 08:31:39;;;;;;;11.73;10.52;;;18.30;1.00;196.50;224877.00;;;;7388319;19;20132;-74
2022/03/24 08:34:14;;;;;;;11.48;10.25;;;18.30;1.00;196.50;224877.00;;;;7388121;19;20595;-77
2022/03/24 08:36:56;;;;;;;12.25;9.40;;;18.40;1.00;196.50;224877.00;;;;7390168;19;20161;-75
2022/03/24 08:39:24;;;;;;;11.00;9.90;;;18.60;1.00;196.50;224877.00;;;;7387109;19;20196;-74
2022/03/24 08:41:58;;;;;;;11.50;10.30;;;18.70;1.00;196.50;224877.00;;;;7390745;19;20625;-75
2022/03/24 08:44:26;;;;;;;11.98;9.90;;;18.40;1.00;196.50;224877.00;;;;7387801;19;20137;-76
2022/03/24 08:46:53;;;;;;;10.70;9.65;;;18.70;1.00;196.50;224877.00;;;;7389051;19;20153;-77
2022/03/24 08:49:27;;;;;;;11.82;9.93;;;18.80;1.00;196.50;224877.00;;;;7389293;19;20150;-77
2022/03/24 08:51:58;;;;;;;12.65;10.90;;;19.00;1.00;196.50;224877.00;;;;7396265;19;20141;-76
2022/03/24 08:54:25;;;;;;;10.52;8.90;;;19.00;1.00;196.50;224877.00;;;;7395002;19;20125;-75
2022/03/24 08:57:00;;;;;;;11.23;9.73;;;19.00;1.00;196.50;224877.00;;;;7395652;19;20154;-75
2022/03/24 08:59:27;;;;;;;12.60;9.25;;;19.00;1.00;196.50;224877.00;;;;7395596;19;20144;-77
2022/03/24 09:01:55;;;;;;;11.38;9.88;;;18.80;1.00;196.50;224877.00;;;;7394596;19;20159;-77
2022/03/24 09:04:28;;;;;;;10.63;9.48;;;18.60;1.00;196.50;224877.00;;;;7396990;19;20129;-78
2022/03/24 09:06:56;;;;;;;10.80;9.68;;;18.80;1.00;196.50;224877.00;;;;7396019;19;20133;-77
2022/03/24 09:09:23;;;;;;;13.23;9.13;;;19.10;1.00;196.50;224877.00;;;;7395649;19;20132;-76
2022/03/24 09:11:57;;;;;;;10.40;9.40;;;19.50;1.00;196.50;224877.00;;;;7394514;19;20121;-76
2022/03/24 09:14:24;;;;;;;10.50;9.40;;;19.70;1.00;196.50;224877.00;;;;7394599;19;20140;-76
2022/03/24 09:16:52;;;;;;;13.00;10.93;;;19.90;1.00;196.50;224877.00;;;;7395029;19;20144;-78
2022/03/24 09:19:25;;;;;;;11.55;10.43;;;20.00;1.00;196.50;224877.00;;;;7399468;19;20153;-76
2022/03/24 09:21:52;;;;;;;16.80;11.40;;;20.50;1.00;196.50;224877.00;;;;7394100;19;20143;-77
2022/03/24 09:24:20;;;;;;;17.17;11.27;;;20.60;1.00;196.50;224877.00;;;;7394583;19;20137;-78
2022/03/24 09:26:56;;;;;;;14.40;12.90;;;20.80;1.00;196.50;224877.00;;;;7395824;19;20165;-76
2022/03/24 09:29:24;;;;;;;12.85;11.63;;;20.90;1.00;196.50;224877.00;;;;7394666;19;20195;-77
2022/03/24 09:31:51;;;;;;;12.82;11.50;;;21.30;1.00;196.50;224877.00;;;;7394742;19;20505;-76
2022/03/24 09:34:33;;;;;;;19.30;13.18;;;20.70;1.00;196.50;224877.00;;;;7393325;19;20172;-77
2022/03/24 09:37:08;;;;;;;20.25;12.35;;;20.50;1.00;196.50;224877.00;;;;7396264;19;20658;-78
2022/03/24 09:39:43;;;;;;;15.00;12.57;;;20.60;1.00;196.50;224877.00;;;;7395385;19;20140;-76
2022/03/24 09:42:11;;;;;;;15.35;12.48;;;20.60;1.00;196.50;224877.00;;;;7393604;19;20204;-78
2022/03/24 09:44:42;;;;;;;15.13;13.52;;;20.60;1.00;196.50;224877.00;;;;7393719;19;20486;-76
2022/03/24 09:47:16;;;;;;;16.92;12.77;;;20.50;1.00;196.50;224877.00;;;;7394243;19;20132;-78
2022/03/24 09:49:44;;;;;;;15.75;13.23;;;20.50;1.00;196.50;224877.00;;;;7394652;19;20145;-78
2022/03/24 09:52:12;;;;;;;14.77;11.77;;;20.40;1.00;196.50;224877.00;;;;7393496;19;20606;-77
2022/03/24 09:54:47;;;;;;;18.67;12.70;;;20.40;1.00;196.50;224877.00;;;;7393063;19;20138;-76
2022/03/24 09:57:15;;;;;;;14.60;12.25;;;20.50;1.00;196.50;224877.00;;;;7393420;19;20485;-77
2022/03/24 09:59:45;;;;;;;16.55;12.82;;;20.60;1.00;196.50;224877.00;;;;7395752;19;20480;-76
2022/03/24 10:02:20;;;;;;;15.65;14.05;;;20.30;1.00;196.50;224877.00;;;;7390339;19;20630;-77
2022/03/24 10:05:01;;;;;;;13.93;12.48;;;20.40;1.00;196.50;224877.00;;;;7392839;19;20144;-78
2022/03/24 10:07:46;;;;;;;15.52;13.10;;;20.20;1.00;196.50;224877.00;;;;7392112;19;20156;-76
2022/03/24 10:10:27;;;;;;;14.32;12.82;;;20.10;1.00;196.50;224877.00;;;;7392691;19;20131;-78
2022/03/24 10:13:02;;;;;;;15.38;11.77;;;20.70;1.00;196.50;224877.00;;;;7392200;19;20141;-75
2022/03/24 10:15:30;;;;;;;17.10;11.55;;;21.00;1.00;196.50;224877.00;;;;7393038;19;20146;-75
2022/03/24 10:17:58;;;;;;;14.18;12.73;;;21.30;1.00;196.50;224877.00;;;;7394982;19;20121;-78
2022/03/24 10:20:33;;;;;;;12.80;11.10;;;21.50;1.00;196.50;224877.00;;;;7392438;19;20133;-78
2022/03/24 10:23:06;;;;;;;14.20;12.43;;;21.80;1.00;196.50;224877.00;;;;7392049;19;20624;-75
2022/03/24 10:25:45;;;;;;;13.43;12.02;;;21.60;1.00;196.50;224877.00;;;;7392163;19;20517;-77
2022/03/24 10:28:21;;;;;;;14.50;12.13;;;21.70;1.00;196.50;224877.00;;;;7392508;19;20188;-76
2022/03/24 10:31:03;;;;;;;14.05;12.65;;;21.90;1.00;196.50;224877.00;;;;7394325;19;20454;-76
2022/03/24 10:33:45;;;;;;;14.60;12.68;;;22.10;1.00;196.50;224877.00;;;;7391153;19;20141;-77
2022/03/24 10:36:27;;;;;;;13.80;11.98;;;22.40;1.00;196.50;224877.00;;;;7391035;19;20149;-76
2022/03/24 10:39:04;;;;;;;13.75;12.32;;;22.40;1.00;196.50;224877.00;;;;7391409;19;20710;-78
2022/03/24 10:41:39;;;;;;;14.10;12.63;;;22.70;1.00;196.50;224877.00;;;;7392288;19;20178;-76
2022/03/24 10:44:12;;;;;;;12.90;11.60;;;23.20;1.00;196.50;224877.00;;;;7391482;19;20687;-79
2022/03/24 10:46:46;;;;;;;15.18;12.45;;;23.20;1.00;196.50;224877.00;;;;7392632;19;20212;-78
2022/03/24 10:49:20;;;;;;;19.48;12.50;;;22.60;1.00;196.50;224877.00;;;;7391999;19;20121;-77
2022/03/24 10:51:56;;;;;;;13.68;12.38;;;23.00;1.00;196.50;224877.00;;;;7391499;19;20507;-75
2022/03/24 10:54:49;;;;;;;16.40;11.90;;;22.80;1.00;196.50;224877.00;;;;7391702;19;20140;-78
2022/03/24 10:57:28;;;;;;;15.32;13.60;;;23.10;1.00;196.50;224877.00;;;;7390624;19;20550;-75
2022/03/24 10:59:58;;;;;;;14.27;12.85;;;22.60;1.00;196.50;224877.00;;;;7390528;19;20651;-76